Time,TemperatureF,DewpointF,PressureIn,WindDirection,WindDirectionDegrees,WindSpeedMPH,WindSpeedGustMPH,Humidity,HourlyPrecipIn,Conditions,Clouds,dailyrainin,SoftwareType,DateUTC
2013-04-23 00:10:00,36.3,35.8,30.49,SSW,202,0.0,-999.0,98,-99.99,,,0.00,Acu-Link.com,2013-04-23 04:10:00,
2013-04-23 00:25:00,36.0,35.5,30.48,SSW,202,0.0,-999.0,98,-99.99,,,0.00,Acu-Link.com,2013-04-23 04:25:00,
2013-04-23 00:40:00,36.7,36.2,30.48,SSW,202,0.0,-999.0,98,-99.99,,,0.00,Acu-Link.com,2013-04-23 04:40:00,
2013-04-23 00:56:00,37.2,36.7,30.48,SSW,202,0.0,-999.0,98,-99.99,,,0.00,Acu-Link.com,2013-04-23 04:56:00,
2013-04-23 01:11:00,38.7,38.1,30.47,SSW,202,0.0,-999.0,98,-99.99,,,0.00,Acu-Link.com,2013-04-23 05:11:00,
2013-04-23 01:26:00,39.2,38.7,30.46,SSW,202,4.3,-999.0,98,-99.99,,,0.00,Acu-Link.com,2013-04-23 05:26:00,
2013-04-23 01:41:00,38.5,37.7,30.46,SSW,202,2.2,-999.0,97,-99.99,,,0.00,Acu-Link.com,2013-04-23 05:41:00,
2013-04-23 01:57:00,38.5,37.2,30.45,ENE,67,4.7,-999.0,95,-99.99,,,0.00,Acu-Link.com,2013-04-23 05:57:00,
2013-04-23 02:12:00,37.8,36.2,30.45,ENE,67,0.0,-999.0,94,-99.99,,,0.00,Acu-Link.com,2013-04-23 06:12:00,
2013-04-23 02:27:00,36.0,35.2,30.44,ENE,67,1.1,-999.0,97,-99.99,,,0.00,Acu-Link.com,2013-04-23 06:27:00,
2013-04-23 02:43:00,35.8,35.3,30.44,ENE,67,0.0,-999.0,98,-99.99,,,0.00,Acu-Link.com,2013-04-23 06:43:00,
2013-04-23 02:58:00,35.6,34.8,30.43,ENE,67,1.1,-999.0,97,-99.99,,,0.00,Acu-Link.com,2013-04-23 06:58:00,
2013-04-23 03:13:00,34.9,34.4,30.43,ENE,67,1.6,-999.0,98,-99.99,,,0.00,Acu-Link.com,2013-04-23 07:13:00,
2013-04-23 03:29:00,36.0,34.7,30.43,ENE,67,2.7,-999.0,95,-99.99,,,0.00,Acu-Link.com,2013-04-23 07:29:00,
2013-04-23 03:44:00,35.2,34.0,30.42,ENE,67,2.7,-999.0,95,-99.99,,,0.00,Acu-Link.com,2013-04-23 07:44:00,
2013-04-23 03:59:00,35.2,33.2,30.42,ENE,67,2.7,-999.0,92,-99.99,,,0.00,Acu-Link.com,2013-04-23 07:59:00,
2013-04-23 04:14:00,35.1,32.4,30.42,ENE,67,1.6,-999.0,90,-99.99,,,0.00,Acu-Link.com,2013-04-23 08:14:00,
2013-04-23 04:30:00,35.4,32.8,30.42,ENE,67,3.8,-999.0,90,-99.99,,,0.00,Acu-Link.com,2013-04-23 08:30:00,
2013-04-23 04:45:00,35.4,32.5,30.43,NE,45,4.3,-999.0,89,-99.99,,,0.00,Acu-Link.com,2013-04-23 08:45:00,
2013-04-23 05:00:00,35.6,32.4,30.42,East,90,4.7,-999.0,88,-99.99,,,0.00,Acu-Link.com,2013-04-23 09:00:00,
2013-04-23 05:16:00,35.1,31.9,30.42,ENE,67,2.7,-999.0,88,-99.99,,,0.00,Acu-Link.com,2013-04-23 09:16:00,
2013-04-23 05:31:00,34.0,31.4,30.42,ENE,67,0.0,-999.0,90,-99.99,,,0.00,Acu-Link.com,2013-04-23 09:31:00,
2013-04-23 05:46:00,32.5,31.0,30.41,ENE,67,1.1,-999.0,94,-99.99,,,0.00,Acu-Link.com,2013-04-23 09:46:00,
2013-04-23 06:02:00,32.0,31.0,30.41,ENE,67,1.1,-999.0,96,-99.99,,,0.00,Acu-Link.com,2013-04-23 10:02:00,
2013-04-23 06:17:00,31.6,31.1,30.41,ENE,67,1.6,-999.0,98,-99.99,,,0.00,Acu-Link.com,2013-04-23 10:17:00,
2013-04-23 06:32:00,31.3,30.8,30.41,ENE,67,0.0,-999.0,98,-99.99,,,0.00,Acu-Link.com,2013-04-23 10:32:00,
2013-04-23 06:47:00,32.9,31.6,30.41,ENE,67,2.7,-999.0,95,-99.99,,,0.00,Acu-Link.com,2013-04-23 10:47:00,
2013-04-23 07:03:00,34.0,31.9,30.41,ENE,67,6.3,-999.0,92,-99.99,,,0.00,Acu-Link.com,2013-04-23 11:03:00,
2013-04-23 07:22:00,34.9,32.8,30.40,North,0,3.1,-999.0,92,-99.99,,,0.00,Acu-Link.com,2013-04-23 11:22:00,
2013-04-23 07:37:00,35.8,33.1,30.40,NE,45,4.7,-999.0,90,-99.99,,,0.00,Acu-Link.com,2013-04-23 11:37:00,
2013-04-23 07:52:00,36.1,33.5,30.40,NNE,22,6.3,-999.0,90,-99.99,,,0.00,Acu-Link.com,2013-04-23 11:52:00,
2013-04-23 08:07:00,36.3,33.4,30.40,NE,45,3.8,-999.0,89,-99.99,,,0.00,Acu-Link.com,2013-04-23 12:07:00,
2013-04-23 08:22:00,36.9,33.6,30.40,ENE,67,5.8,-999.0,88,-99.99,,,0.00,Acu-Link.com,2013-04-23 12:22:00,
2013-04-23 08:38:00,37.8,34.0,30.39,NE,45,5.8,-999.0,86,-99.99,,,0.00,Acu-Link.com,2013-04-23 12:38:00,
2013-04-23 08:53:00,38.3,33.9,30.39,NE,45,5.1,-999.0,84,-99.99,,,0.00,Acu-Link.com,2013-04-23 12:53:00,
2013-04-23 09:08:00,39.0,34.6,30.38,NE,45,7.4,-999.0,84,-99.99,,,0.00,Acu-Link.com,2013-04-23 13:08:00,
2013-04-23 09:23:00,39.2,34.5,30.38,ENE,67,6.7,-999.0,83,-99.99,,,0.00,Acu-Link.com,2013-04-23 13:23:00,
2013-04-23 09:38:00,39.4,34.7,30.37,ESE,112,6.3,-999.0,83,-99.99,,,0.00,Acu-Link.com,2013-04-23 13:38:00,
2013-04-23 09:54:00,39.6,34.5,30.37,ENE,67,4.3,-999.0,82,-99.99,,,0.00,Acu-Link.com,2013-04-23 13:54:00,
2013-04-23 10:09:00,40.1,34.7,30.37,ENE,67,4.7,-999.0,81,-99.99,,,0.00,Acu-Link.com,2013-04-23 14:09:00,
2013-04-23 10:24:00,40.6,35.3,30.37,NE,45,3.8,-999.0,81,-99.99,,,0.00,Acu-Link.com,2013-04-23 14:24:00,
2013-04-23 10:40:00,40.8,35.4,30.37,East,90,5.1,-999.0,81,-99.99,,,0.00,Acu-Link.com,2013-04-23 14:40:00,
2013-04-23 10:55:00,41.4,36.0,30.36,ENE,67,3.8,-999.0,81,-99.99,,,0.00,Acu-Link.com,2013-04-23 14:55:00,
2013-04-23 11:10:00,41.4,36.3,30.36,NE,45,6.3,-999.0,82,-99.99,,,0.00,Acu-Link.com,2013-04-23 15:10:00,
2013-04-23 11:26:00,41.4,36.6,30.35,East,90,5.8,-999.0,83,-99.99,,,0.00,Acu-Link.com,2013-04-23 15:26:00,
2013-04-23 11:41:00,42.1,37.0,30.34,ENE,67,6.7,-999.0,82,-99.99,,,0.00,Acu-Link.com,2013-04-23 15:41:00,
2013-04-23 11:56:00,42.6,37.5,30.33,NNE,22,4.7,-999.0,82,-99.99,,,0.00,Acu-Link.com,2013-04-23 15:56:00,
2013-04-23 12:11:00,42.8,37.4,30.33,NNE,22,9.8,-999.0,81,-99.99,,,0.00,Acu-Link.com,2013-04-23 16:11:00,
2013-04-23 12:27:00,43.2,38.0,30.32,ENE,67,7.8,-999.0,82,-99.99,,,0.00,Acu-Link.com,2013-04-23 16:27:00,
2013-04-23 12:42:00,44.1,39.2,30.32,East,90,5.1,-999.0,83,-99.99,,,0.00,Acu-Link.com,2013-04-23 16:42:00,
2013-04-23 12:57:00,43.5,38.7,30.31,ENE,67,4.3,-999.0,83,-99.99,,,0.00,Acu-Link.com,2013-04-23 16:57:00,
2013-04-23 13:13:00,44.1,39.5,30.30,NE,45,6.3,-999.0,84,-99.99,,,0.00,Acu-Link.com,2013-04-23 17:13:00,
2013-04-23 13:28:00,44.1,38.9,30.29,ENE,67,5.1,-999.0,82,-99.99,,,0.00,Acu-Link.com,2013-04-23 17:28:00,
2013-04-23 13:43:00,44.4,39.3,30.29,North,0,6.3,-999.0,82,-99.99,,,0.00,Acu-Link.com,2013-04-23 17:43:00,
2013-04-23 13:59:00,45.0,40.1,30.29,ENE,67,3.8,-999.0,83,-99.99,,,0.00,Acu-Link.com,2013-04-23 17:59:00,
2013-04-23 14:14:00,45.3,40.8,30.27,NE,45,5.1,-999.0,84,-99.99,,,0.00,Acu-Link.com,2013-04-23 18:14:00,
2013-04-23 14:29:00,45.7,40.8,30.26,NE,45,4.7,-999.0,83,-99.99,,,0.00,Acu-Link.com,2013-04-23 18:29:00,
2013-04-23 14:44:00,46.0,41.5,30.26,East,90,5.1,-999.0,84,-99.99,,,0.00,Acu-Link.com,2013-04-23 18:44:00,
2013-04-23 15:00:00,46.6,41.4,30.25,NE,45,6.7,-999.0,82,-99.99,,,0.00,Acu-Link.com,2013-04-23 19:00:00,
2013-04-23 15:15:00,46.8,41.6,30.24,East,90,4.7,-999.0,82,-99.99,,,0.00,Acu-Link.com,2013-04-23 19:15:00,
2013-04-23 15:30:00,48.2,42.6,30.24,ENE,67,4.3,-999.0,81,-99.99,,,0.00,Acu-Link.com,2013-04-23 19:30:00,
2013-04-23 15:45:00,48.7,42.5,30.23,NNE,22,7.8,-999.0,79,-99.99,,,0.00,Acu-Link.com,2013-04-23 19:45:00,
2013-04-23 16:01:00,48.7,43.2,30.23,East,90,5.1,-999.0,81,-99.99,,,0.00,Acu-Link.com,2013-04-23 20:01:00,
2013-04-23 16:16:00,48.7,43.5,30.23,ESE,112,5.8,-999.0,82,-99.99,,,0.00,Acu-Link.com,2013-04-23 20:16:00,
2013-04-23 16:31:00,48.9,43.7,30.22,NE,45,5.8,-999.0,82,-99.99,,,0.00,Acu-Link.com,2013-04-23 20:31:00,
2013-04-23 16:47:00,48.9,43.3,30.22,NE,45,3.1,-999.0,81,-99.99,,,0.00,Acu-Link.com,2013-04-23 20:47:00,
2013-04-23 17:02:00,49.5,43.6,30.23,ENE,67,0.0,-999.0,80,-99.99,,,0.00,Acu-Link.com,2013-04-23 21:02:00,
2013-04-23 17:17:00,49.5,44.2,30.22,ESE,112,4.3,-999.0,82,-99.99,,,0.00,Acu-Link.com,2013-04-23 21:17:00,
2013-04-23 17:32:00,49.5,44.2,30.21,ENE,67,4.3,-999.0,82,-99.99,,,0.00,Acu-Link.com,2013-04-23 21:32:00,
2013-04-23 17:48:00,50.2,44.3,30.21,ENE,67,5.1,-999.0,80,-99.99,,,0.00,Acu-Link.com,2013-04-23 21:48:00,
2013-04-23 18:03:00,50.0,43.7,30.18,North,0,3.8,-999.0,79,-99.99,,,0.00,Acu-Link.com,2013-04-23 22:03:00,
2013-04-23 18:18:00,50.2,43.6,30.17,ENE,67,4.3,-999.0,78,-99.99,,,0.00,Acu-Link.com,2013-04-23 22:18:00,
2013-04-23 18:34:00,50.0,44.1,30.17,NE,45,2.7,-999.0,80,-99.99,,,0.00,Acu-Link.com,2013-04-23 22:34:00,
2013-04-23 18:49:00,50.2,44.3,30.18,North,0,3.1,-999.0,80,-99.99,,,0.00,Acu-Link.com,2013-04-23 22:49:00,
2013-04-23 19:04:00,49.8,43.9,30.17,NE,45,2.7,-999.0,80,-99.99,,,0.00,Acu-Link.com,2013-04-23 23:04:00,
2013-04-23 19:19:00,49.5,43.6,30.16,North,0,2.7,-999.0,80,-99.99,,,0.00,Acu-Link.com,2013-04-23 23:19:00,
2013-04-23 19:34:00,48.9,43.3,30.17,North,0,1.1,-999.0,81,-99.99,,,0.00,Acu-Link.com,2013-04-23 23:34:00,
2013-04-23 19:49:00,48.6,43.3,30.14,ENE,67,3.1,-999.0,82,-99.99,,,0.00,Acu-Link.com,2013-04-23 23:49:00,
2013-04-23 20:04:00,47.5,42.9,30.14,NE,45,2.7,-999.0,84,-99.99,,,0.00,Acu-Link.com,2013-04-24 00:04:00,
2013-04-23 20:19:00,46.2,42.6,30.14,NE,45,1.6,-999.0,87,-99.99,,,0.00,Acu-Link.com,2013-04-24 00:19:00,
2013-04-23 20:34:00,44.8,42.0,30.13,NE,45,0.0,-999.0,90,-99.99,,,0.00,Acu-Link.com,2013-04-24 00:34:00,
2013-04-23 20:50:00,43.9,41.7,30.13,NNE,22,1.6,-999.0,92,-99.99,,,0.00,Acu-Link.com,2013-04-24 00:50:00,
2013-04-23 21:05:00,43.5,41.6,30.13,NNE,22,1.1,-999.0,93,-99.99,,,0.00,Acu-Link.com,2013-04-24 01:05:00,
2013-04-23 21:20:00,43.2,41.6,30.13,NNE,22,1.6,-999.0,94,-99.99,,,0.00,Acu-Link.com,2013-04-24 01:20:00,
2013-04-23 21:35:00,43.2,41.6,30.12,NNE,22,2.7,-999.0,94,-99.99,,,0.00,Acu-Link.com,2013-04-24 01:35:00,
2013-04-23 21:51:00,42.4,40.8,30.12,NNE,22,1.6,-999.0,94,-99.99,,,0.00,Acu-Link.com,2013-04-24 01:51:00,
2013-04-23 22:06:00,41.9,41.1,30.12,NNE,22,0.0,-999.0,97,-99.99,,,0.00,Acu-Link.com,2013-04-24 02:06:00,
2013-04-23 22:21:00,40.8,40.3,30.12,NNE,22,1.6,-999.0,98,-99.99,,,0.00,Acu-Link.com,2013-04-24 02:21:00,
2013-04-23 22:37:00,39.7,39.2,30.12,NNE,22,0.0,-999.0,98,-99.99,,,0.00,Acu-Link.com,2013-04-24 02:37:00,
2013-04-23 22:52:00,38.8,38.3,30.11,NNE,22,0.0,-999.0,98,-99.99,,,0.00,Acu-Link.com,2013-04-24 02:52:00,
2013-04-23 23:07:00,37.9,37.4,30.11,NNE,22,0.0,-999.0,98,-99.99,,,0.00,Acu-Link.com,2013-04-24 03:07:00,
2013-04-23 23:22:00,37.2,36.7,30.10,NNE,22,1.6,-999.0,98,-99.99,,,0.00,Acu-Link.com,2013-04-24 03:22:00,
2013-04-23 23:37:00,36.9,36.3,30.10,NNE,22,0.0,-999.0,98,-99.99,,,0.00,Acu-Link.com,2013-04-24 03:37:00,
2013-04-23 23:53:00,36.1,35.6,30.10,NNE,22,0.0,-999.0,98,-99.99,,,0.00,Acu-Link.com,2013-04-24 03:53:00,